createdAt,value
2023-04-02T00:00:47.838Z,513.00
2023-04-02T00:01:47.886Z,507.00
2023-04-02T00:02:47.984Z,514.00
2023-04-02T00:03:48.006Z,511.00
2023-04-02T00:04:47.951Z,505.00
2023-04-02T00:05:47.977Z,511.00
2023-04-02T00:06:48.032Z,512.00
2023-04-02T00:07:48.116Z,509.00
2023-04-02T00:08:48.083Z,513.00
2023-04-02T00:09:48.110Z,508.00
2023-04-02T00:10:48.139Z,510.00
2023-04-02T00:11:48.135Z,511.00
2023-04-02T00:12:48.157Z,510.00
2023-04-02T00:13:48.225Z,510.00
2023-04-02T00:14:48.227Z,510.00
2023-04-02T00:15:48.302Z,505.00
2023-04-02T00:16:48.399Z,509.00
2023-04-02T00:17:48.345Z,514.00
2023-04-02T00:18:48.358Z,508.00
2023-04-02T00:19:48.334Z,511.00
2023-04-02T00:20:48.396Z,513.00
2023-04-02T00:21:48.421Z,508.00
2023-04-02T00:22:48.436Z,512.00
2023-04-02T00:23:48.451Z,508.00
2023-04-02T00:24:48.458Z,505.00
2023-04-02T00:25:48.535Z,510.00
2023-04-02T00:26:48.939Z,512.00
2023-04-02T00:27:48.537Z,507.00
2023-04-02T00:28:48.576Z,513.00
2023-04-02T00:29:48.611Z,513.00
2023-04-02T00:30:48.659Z,511.00
2023-04-02T00:31:48.690Z,509.00
2023-04-02T00:32:48.741Z,505.00
2023-04-02T00:33:48.740Z,512.00
2023-04-02T00:34:48.805Z,509.00
2023-04-02T00:35:48.846Z,508.00
2023-04-02T00:36:48.809Z,510.00
2023-04-02T00:37:48.837Z,510.00
2023-04-02T00:38:49.013Z,513.00
2023-04-02T00:39:48.881Z,512.00
2023-04-02T00:40:48.953Z,513.00
2023-04-02T00:41:48.989Z,512.00
2023-04-02T00:42:48.999Z,507.00
2023-04-02T00:43:49.008Z,510.00
2023-04-02T00:44:49.995Z,511.00
2023-04-02T00:45:49.159Z,506.00
2023-04-02T00:46:49.126Z,510.00
2023-04-02T00:47:49.188Z,510.00
2023-04-02T00:48:49.208Z,510.00
2023-04-02T00:49:49.208Z,510.00
2023-04-02T00:50:49.260Z,509.00
2023-04-02T00:51:49.261Z,510.00
2023-04-02T00:52:49.297Z,513.00
2023-04-02T00:53:49.345Z,515.00
2023-04-02T00:54:49.375Z,508.00
2023-04-02T00:55:49.399Z,509.00
2023-04-02T00:56:49.486Z,506.00
2023-04-02T00:57:49.472Z,507.00
2023-04-02T00:58:49.463Z,510.00
2023-04-02T00:59:49.524Z,511.00
2023-04-02T01:00:49.533Z,508.00
2023-04-02T01:01:49.623Z,507.00
2023-04-02T01:02:49.703Z,508.00
2023-04-02T01:03:49.613Z,510.00
2023-04-02T01:04:49.626Z,513.00
2023-04-02T01:05:49.664Z,508.00
2023-04-02T01:06:49.736Z,510.00
2023-04-02T01:07:49.727Z,512.00
2023-04-02T01:08:49.776Z,510.00
2023-04-02T01:09:49.788Z,509.00
2023-04-02T01:10:49.838Z,510.00
2023-04-02T01:11:49.837Z,512.00
2023-04-02T01:12:49.945Z,516.00
2023-04-02T01:13:49.911Z,509.00
2023-04-02T01:14:49.957Z,510.00
2023-04-02T01:15:50.030Z,506.00
2023-04-02T01:16:50.027Z,510.00
2023-04-02T01:17:50.057Z,509.00
2023-04-02T01:18:50.128Z,511.00
2023-04-02T01:19:50.137Z,511.00
2023-04-02T01:20:50.151Z,511.00
2023-04-02T01:21:50.165Z,508.00
2023-04-02T01:22:50.263Z,512.00
2023-04-02T01:23:50.274Z,514.00
2023-04-02T01:24:50.304Z,513.00
2023-04-02T01:25:50.331Z,513.00
2023-04-02T01:26:50.347Z,511.00
2023-04-02T01:27:50.389Z,507.00
2023-04-02T01:28:50.432Z,512.00
2023-04-02T01:29:50.474Z,513.00
2023-04-02T01:30:50.510Z,509.00
2023-04-02T01:31:50.565Z,508.00
2023-04-02T01:32:50.589Z,508.00
2023-04-02T01:33:50.635Z,512.00
2023-04-02T01:34:50.706Z,511.00
2023-04-02T01:35:50.698Z,509.00
2023-04-02T01:36:50.717Z,510.00
2023-04-02T01:37:50.760Z,513.00
2023-04-02T01:38:50.817Z,512.00
2023-04-02T01:39:50.827Z,508.00
2023-04-02T01:40:50.868Z,512.00
2023-04-02T01:41:50.882Z,512.00
2023-04-02T01:42:50.924Z,512.00
2023-04-02T01:43:50.990Z,511.00
2023-04-02T01:44:50.999Z,512.00
2023-04-02T01:45:51.066Z,510.00
2023-04-02T01:46:51.201Z,507.00
2023-04-02T01:47:51.144Z,510.00
2023-04-02T01:48:51.177Z,511.00
2023-04-02T01:49:51.184Z,513.00
2023-04-02T01:50:51.218Z,513.00
2023-04-02T01:51:51.291Z,508.00
2023-04-02T01:52:51.317Z,513.00
2023-04-02T01:53:51.369Z,508.00
2023-04-02T01:54:51.381Z,512.00
2023-04-02T01:55:51.436Z,513.00
2023-04-02T01:56:51.489Z,507.00
2023-04-02T01:57:51.523Z,514.00
2023-04-02T01:58:51.541Z,509.00
2023-04-02T01:59:51.577Z,507.00
2023-04-02T02:00:51.607Z,514.00
2023-04-02T02:01:51.721Z,515.00
2023-04-02T02:02:51.747Z,513.00
2023-04-02T02:03:51.740Z,511.00
2023-04-02T02:04:51.757Z,513.00
2023-04-02T02:05:51.817Z,511.00
2023-04-02T02:06:51.887Z,508.00
2023-04-02T02:07:51.885Z,511.00
2023-04-02T02:08:51.940Z,512.00
2023-04-02T02:09:51.950Z,512.00
2023-04-02T02:10:51.984Z,514.00
2023-04-02T02:11:52.075Z,512.00
2023-04-02T02:12:52.037Z,510.00
2023-04-02T02:13:52.081Z,514.00
2023-04-02T02:14:52.239Z,511.00
2023-04-02T02:15:52.194Z,512.00
2023-04-02T02:16:52.212Z,512.00
2023-04-02T02:17:52.266Z,515.00
2023-04-02T02:18:52.295Z,511.00
2023-04-02T02:19:52.373Z,512.00
2023-04-02T02:20:52.373Z,511.00
2023-04-02T02:21:52.421Z,508.00
2023-04-02T02:22:52.474Z,508.00
2023-04-02T02:23:52.468Z,512.00
2023-04-02T02:24:52.529Z,508.00
2023-04-02T02:25:52.538Z,510.00
2023-04-02T02:26:52.592Z,509.00
2023-04-02T02:27:52.626Z,513.00
2023-04-02T02:28:52.672Z,510.00
2023-04-02T02:29:52.686Z,509.00
2023-04-02T02:30:52.714Z,510.00
2023-04-02T02:31:52.891Z,515.00
2023-04-02T02:32:52.844Z,510.00
2023-04-02T02:33:52.844Z,511.00
2023-04-02T02:34:52.896Z,514.00
2023-04-02T02:35:52.995Z,508.00
2023-04-02T02:36:53.003Z,512.00
2023-04-02T02:37:53.001Z,513.00
2023-04-02T02:38:54.359Z,509.00
2023-04-02T02:39:53.121Z,511.00
2023-04-02T02:40:53.109Z,511.00
2023-04-02T02:41:53.176Z,511.00
2023-04-02T02:42:53.265Z,513.00
2023-04-02T02:43:53.225Z,516.00
2023-04-02T02:44:53.278Z,511.00
2023-04-02T02:45:53.326Z,512.00
2023-04-02T02:46:53.335Z,513.00
2023-04-02T02:47:53.409Z,514.00
2023-04-02T02:48:53.377Z,511.00
2023-04-02T02:49:53.450Z,512.00
2023-04-02T02:50:53.452Z,512.00
2023-04-02T02:51:53.575Z,510.00
2023-04-02T02:52:53.535Z,509.00
2023-04-02T02:53:53.579Z,512.00
2023-04-02T02:54:53.630Z,511.00
2023-04-02T02:55:53.673Z,514.00
2023-04-02T02:56:53.744Z,508.00
2023-04-02T02:57:53.768Z,514.00
2023-04-02T02:58:53.782Z,514.00
2023-04-02T02:59:53.800Z,513.00
2023-04-02T03:00:53.853Z,513.00
2023-04-02T03:01:53.905Z,513.00
2023-04-02T03:02:54.036Z,509.00
2023-04-02T03:03:54.229Z,513.00
2023-04-02T03:04:54.007Z,512.00
2023-04-02T03:05:54.070Z,512.00
2023-04-02T03:06:54.096Z,513.00
2023-04-02T03:07:54.164Z,510.00
2023-04-02T03:08:54.165Z,511.00
2023-04-02T03:09:54.195Z,509.00
2023-04-02T03:10:54.263Z,512.00
2023-04-02T03:11:54.292Z,513.00
2023-04-02T03:12:54.335Z,509.00
2023-04-02T03:13:54.359Z,511.00
2023-04-02T03:14:54.429Z,513.00
2023-04-02T03:15:54.505Z,509.00
2023-04-02T03:16:54.488Z,511.00
2023-04-02T03:17:54.560Z,510.00
2023-04-02T03:18:54.546Z,510.00
2023-04-02T03:19:54.619Z,512.00
2023-04-02T03:20:54.622Z,513.00
2023-04-02T03:21:54.635Z,515.00
2023-04-02T03:22:54.673Z,513.00
2023-04-02T03:23:54.748Z,512.00
2023-04-02T03:24:54.791Z,513.00
2023-04-02T03:25:54.799Z,512.00
2023-04-02T03:26:54.870Z,510.00
2023-04-02T03:27:54.916Z,511.00
2023-04-02T03:28:54.914Z,511.00
2023-04-02T03:29:54.991Z,511.00
2023-04-02T03:30:55.018Z,511.00
2023-04-02T03:31:55.075Z,512.00
2023-04-02T03:32:55.143Z,513.00
2023-04-02T03:33:55.172Z,515.00
2023-04-02T03:34:55.197Z,510.00
2023-04-02T03:35:55.247Z,511.00
2023-04-02T03:36:55.285Z,513.00
2023-04-02T03:37:55.375Z,509.00
2023-04-02T03:38:55.404Z,514.00
2023-04-02T03:39:55.465Z,516.00
2023-04-02T03:40:55.511Z,514.00
2023-04-02T03:41:55.581Z,513.00
2023-04-02T03:42:55.598Z,510.00
2023-04-02T03:43:55.645Z,514.00
2023-04-02T03:44:55.705Z,514.00
2023-04-02T03:45:55.725Z,511.00
2023-04-02T03:46:55.781Z,514.00
2023-04-02T03:47:55.823Z,514.00
2023-04-02T03:48:55.840Z,513.00
2023-04-02T03:49:55.902Z,515.00
2023-04-02T03:50:55.956Z,511.00
2023-04-02T03:51:56.072Z,509.00
2023-04-02T03:52:56.019Z,514.00
2023-04-02T03:53:56.076Z,515.00
2023-04-02T03:54:56.079Z,512.00
2023-04-02T03:55:56.144Z,511.00
2023-04-02T03:56:56.227Z,513.00
2023-04-02T03:57:56.208Z,513.00
2023-04-02T03:58:56.254Z,514.00
2023-04-02T03:59:56.324Z,515.00
2023-04-02T04:00:56.354Z,509.00
2023-04-02T04:01:56.442Z,514.00
2023-04-02T04:02:56.482Z,516.00
2023-04-02T04:03:56.534Z,512.00
2023-04-02T04:04:56.501Z,517.00
2023-04-02T04:05:56.568Z,514.00
2023-04-02T04:06:56.650Z,513.00
2023-04-02T04:07:56.645Z,509.00
2023-04-02T04:08:56.698Z,512.00
2023-04-02T04:09:56.734Z,514.00
2023-04-02T04:10:56.781Z,509.00
2023-04-02T04:11:56.785Z,513.00
2023-04-02T04:12:56.823Z,514.00
2023-04-02T04:13:56.870Z,510.00
2023-04-02T04:14:56.904Z,513.00
2023-04-02T04:15:56.949Z,512.00
2023-04-02T04:16:57.034Z,514.00
2023-04-02T04:17:57.039Z,512.00
2023-04-02T04:18:57.067Z,512.00
2023-04-02T04:19:57.082Z,512.00
2023-04-02T04:20:57.187Z,513.00
2023-04-02T04:21:57.189Z,510.00
2023-04-02T04:22:57.199Z,516.00
2023-04-02T04:23:57.249Z,511.00
2023-04-02T04:24:57.314Z,508.00
2023-04-02T04:25:57.345Z,511.00
2023-04-02T04:26:57.431Z,508.00
2023-04-02T04:27:57.437Z,515.00
2023-04-02T04:28:57.464Z,514.00
2023-04-02T04:29:57.519Z,512.00
2023-04-02T04:30:57.556Z,515.00
2023-04-02T04:31:57.630Z,515.00
2023-04-02T04:32:57.690Z,513.00
2023-04-02T04:33:57.690Z,513.00
2023-04-02T04:34:57.741Z,512.00
2023-04-02T04:35:57.876Z,515.00
2023-04-02T04:36:57.852Z,516.00
2023-04-02T04:37:57.875Z,511.00
2023-04-02T04:38:57.888Z,515.00
2023-04-02T04:39:57.953Z,516.00
2023-04-02T04:40:58.032Z,508.00
2023-04-02T04:41:58.009Z,513.00
2023-04-02T04:42:58.075Z,510.00
2023-04-02T04:43:58.136Z,511.00
2023-04-02T04:44:58.163Z,514.00
2023-04-02T04:45:58.251Z,514.00
2023-04-02T04:46:58.244Z,514.00
2023-04-02T04:47:58.308Z,516.00
2023-04-02T04:48:58.348Z,518.00
2023-04-02T04:49:58.380Z,509.00
2023-04-02T04:50:58.441Z,514.00
2023-04-02T04:51:58.527Z,510.00
2023-04-02T04:52:58.560Z,516.00
2023-04-02T04:53:58.596Z,509.00
2023-04-02T04:54:58.661Z,510.00
2023-04-02T04:56:05.886Z,512.00
2023-04-02T04:56:59.706Z,512.00
2023-04-02T04:57:58.719Z,513.00
2023-04-02T04:58:58.660Z,513.00
2023-04-02T04:59:58.685Z,511.00
2023-04-02T05:00:58.650Z,514.00
2023-04-02T05:01:58.649Z,512.00
2023-04-02T05:02:58.648Z,517.00
2023-04-02T05:03:58.696Z,515.00
2023-04-02T05:04:58.665Z,514.00
2023-04-02T05:05:58.624Z,514.00
2023-04-02T05:06:58.611Z,511.00
2023-04-02T05:07:59.816Z,514.00
2023-04-02T05:08:58.727Z,512.00
2023-04-02T05:09:58.763Z,517.00
2023-04-02T05:10:58.809Z,510.00
2023-04-02T05:11:58.819Z,512.00
2023-04-02T05:12:58.894Z,511.00
2023-04-02T05:13:58.929Z,512.00
2023-04-02T05:14:58.979Z,512.00
2023-04-02T05:16:01.213Z,515.00
2023-04-02T05:16:59.059Z,513.00
2023-04-02T05:17:59.136Z,513.00
2023-04-02T05:18:59.178Z,515.00
2023-04-02T05:19:59.194Z,513.00
2023-04-02T05:20:59.257Z,515.00
2023-04-02T05:21:59.293Z,512.00
2023-04-02T05:22:59.324Z,508.00
2023-04-02T05:23:59.378Z,514.00
2023-04-02T05:24:59.440Z,510.00
2023-04-02T05:25:59.473Z,515.00
2023-04-02T05:26:59.490Z,515.00
2023-04-02T05:27:59.578Z,510.00
2023-04-02T05:28:59.575Z,512.00
2023-04-02T05:29:59.633Z,514.00
2023-04-02T05:30:59.726Z,513.00
2023-04-02T05:31:59.740Z,510.00
2023-04-02T05:32:59.802Z,511.00
2023-04-02T05:33:59.829Z,511.00
2023-04-02T05:34:59.853Z,510.00
2023-04-02T05:35:59.922Z,516.00
2023-04-02T05:36:59.947Z,513.00
2023-04-02T05:37:59.988Z,511.00
2023-04-02T05:39:00.026Z,507.00
2023-04-02T05:40:00.135Z,514.00
2023-04-02T05:41:00.129Z,514.00
2023-04-02T05:42:00.140Z,511.00
2023-04-02T05:43:00.181Z,510.00
2023-04-02T05:44:00.197Z,513.00
2023-04-02T05:45:00.209Z,514.00
2023-04-02T05:46:00.281Z,517.00
2023-04-02T05:47:00.403Z,509.00
2023-04-02T05:48:00.411Z,511.00
2023-04-02T05:49:00.384Z,513.00
2023-04-02T05:50:00.418Z,508.00
2023-04-02T05:51:00.485Z,512.00
2023-04-02T05:52:00.520Z,514.00
2023-04-02T05:53:00.546Z,512.00
2023-04-02T05:54:00.537Z,512.00
2023-04-02T05:55:00.616Z,509.00
2023-04-02T05:56:00.657Z,511.00
2023-04-02T05:57:00.728Z,512.00
2023-04-02T05:58:21.197Z,511.00
2023-04-02T05:59:01.755Z,511.00
2023-04-02T06:00:00.754Z,512.00
2023-04-02T06:01:00.720Z,513.00
2023-04-02T06:02:00.794Z,512.00
2023-04-02T06:03:00.804Z,511.00
2023-04-02T06:04:00.820Z,508.00
2023-04-02T06:05:00.681Z,511.00
2023-04-02T06:06:00.711Z,514.00
2023-04-02T06:07:00.682Z,517.00
2023-04-02T06:08:00.634Z,515.00
2023-04-02T06:09:00.679Z,508.00
2023-04-02T06:10:00.762Z,509.00
2023-04-02T06:11:00.774Z,512.00
2023-04-02T06:12:00.768Z,513.00
2023-04-02T06:13:00.839Z,510.00
2023-04-02T06:14:00.847Z,509.00
2023-04-02T06:15:00.933Z,509.00
2023-04-02T06:16:00.969Z,514.00
2023-04-02T06:17:01.041Z,511.00
2023-04-02T06:18:01.101Z,509.00
2023-04-02T06:19:01.100Z,511.00
2023-04-02T06:20:01.141Z,511.00
2023-04-02T06:21:01.216Z,513.00
2023-04-02T06:22:01.228Z,515.00
2023-04-02T06:23:01.317Z,515.00
2023-04-02T06:24:01.318Z,509.00
2023-04-02T06:25:01.378Z,515.00
2023-04-02T06:26:01.420Z,513.00
2023-04-02T06:27:01.463Z,512.00
2023-04-02T06:28:01.523Z,514.00
2023-04-02T06:29:01.541Z,513.00
2023-04-02T06:30:01.673Z,511.00
2023-04-02T06:31:01.693Z,513.00
2023-04-02T06:32:01.663Z,511.00
2023-04-02T06:33:01.813Z,510.00
2023-04-02T06:34:01.775Z,515.00
2023-04-02T06:35:01.815Z,508.00
2023-04-02T06:36:01.883Z,511.00
2023-04-02T06:37:01.905Z,510.00
2023-04-02T06:38:01.936Z,507.00
2023-04-02T06:39:01.957Z,515.00
2023-04-02T06:40:02.026Z,511.00
2023-04-02T06:41:02.072Z,511.00
2023-04-02T06:42:02.109Z,510.00
2023-04-02T06:43:02.149Z,508.00
2023-04-02T06:44:02.144Z,509.00
2023-04-02T06:45:02.236Z,508.00
2023-04-02T06:46:02.314Z,511.00
2023-04-02T06:47:02.261Z,508.00
2023-04-02T06:48:02.370Z,511.00
2023-04-02T06:49:02.381Z,511.00
2023-04-02T06:50:02.414Z,513.00
2023-04-02T06:51:02.445Z,510.00
2023-04-02T06:52:02.468Z,512.00
2023-04-02T06:53:02.510Z,514.00
2023-04-02T06:54:02.553Z,512.00
2023-04-02T06:55:02.666Z,510.00
2023-04-02T06:56:02.604Z,511.00
2023-04-02T06:57:02.684Z,512.00
2023-04-02T06:58:02.722Z,510.00
2023-04-02T06:59:02.738Z,511.00
2023-04-02T07:00:02.764Z,512.00
2023-04-02T07:01:02.852Z,510.00
2023-04-02T07:02:02.853Z,508.00
2023-04-02T07:03:02.942Z,515.00
2023-04-02T07:04:02.913Z,515.00
2023-04-02T07:05:02.989Z,508.00
2023-04-02T07:06:02.964Z,511.00
2023-04-02T07:07:03.018Z,511.00
2023-04-02T07:08:03.027Z,512.00
2023-04-02T07:09:03.061Z,512.00
2023-04-02T07:10:03.062Z,513.00
2023-04-02T07:11:03.152Z,511.00
2023-04-02T07:12:03.151Z,512.00
2023-04-02T07:13:03.233Z,508.00
2023-04-02T07:14:03.202Z,509.00
2023-04-02T07:15:03.586Z,510.00
2023-04-02T07:16:03.616Z,508.00
2023-04-02T07:17:03.295Z,515.00
2023-04-02T07:18:03.339Z,508.00
2023-04-02T07:19:03.268Z,511.00
2023-04-02T07:20:03.302Z,512.00
2023-04-02T07:21:03.356Z,508.00
2023-04-02T07:22:03.391Z,514.00
2023-04-02T07:23:03.436Z,513.00
2023-04-02T07:24:03.390Z,510.00
2023-04-02T07:25:03.451Z,509.00
2023-04-02T07:26:03.460Z,513.00
2023-04-02T07:27:03.487Z,506.00
2023-04-02T07:28:03.523Z,511.00
2023-04-02T07:29:03.528Z,511.00
2023-04-02T07:30:03.529Z,506.00
2023-04-02T07:31:03.612Z,512.00
2023-04-02T07:32:03.601Z,509.00
2023-04-02T07:33:03.654Z,510.00
2023-04-02T07:34:03.630Z,508.00
2023-04-02T07:35:03.676Z,507.00
2023-04-02T07:36:03.739Z,510.00
2023-04-02T07:37:03.718Z,509.00
2023-04-02T07:38:03.819Z,510.00
2023-04-02T07:39:03.786Z,513.00
2023-04-02T07:40:03.823Z,506.00
2023-04-02T07:41:03.818Z,513.00
2023-04-02T07:42:03.867Z,513.00
2023-04-02T07:43:03.868Z,512.00
2023-04-02T07:44:03.936Z,509.00
2023-04-02T07:45:05.832Z,508.00
2023-04-02T07:46:03.971Z,510.00
2023-04-02T07:47:04.111Z,513.00
2023-04-02T07:48:04.040Z,508.00
2023-04-02T07:49:04.050Z,511.00
2023-04-02T07:50:04.062Z,508.00
2023-04-02T07:51:04.106Z,510.00
2023-04-02T07:52:04.126Z,511.00
2023-04-02T07:53:04.178Z,511.00
2023-04-02T07:54:04.190Z,509.00
2023-04-02T07:55:04.202Z,506.00
2023-04-02T07:56:04.255Z,509.00
2023-04-02T07:57:04.312Z,508.00
2023-04-02T07:58:04.280Z,507.00
2023-04-02T07:59:04.343Z,506.00
2023-04-02T08:00:04.346Z,506.00
2023-04-02T08:01:04.326Z,510.00
2023-04-02T08:02:04.419Z,509.00
2023-04-02T08:03:04.500Z,509.00
2023-04-02T08:04:04.423Z,509.00
2023-04-02T08:05:04.436Z,511.00
2023-04-02T08:06:04.456Z,511.00
2023-04-02T08:07:05.143Z,510.00
2023-04-02T08:08:04.471Z,507.00
2023-04-02T08:09:04.507Z,508.00
2023-04-02T08:10:04.516Z,504.00
2023-04-02T08:11:04.558Z,505.00
2023-04-02T08:12:04.557Z,508.00
2023-04-02T08:13:04.558Z,512.00
2023-04-02T08:14:04.599Z,506.00
2023-04-02T08:15:04.593Z,509.00
2023-04-02T08:16:04.644Z,506.00
2023-04-02T08:17:04.706Z,508.00
2023-04-02T08:18:04.750Z,504.00
2023-04-02T08:19:04.661Z,507.00
2023-04-02T08:20:04.679Z,506.00
2023-04-02T08:21:04.700Z,506.00
2023-04-02T08:22:04.700Z,511.00
2023-04-02T08:23:04.709Z,510.00
2023-04-02T08:24:04.731Z,507.00
2023-04-02T08:25:04.745Z,508.00
2023-04-02T08:26:04.743Z,508.00
2023-04-02T08:27:04.785Z,509.00
2023-04-02T08:28:04.847Z,508.00
2023-04-02T08:29:04.844Z,508.00
2023-04-02T08:30:04.861Z,510.00
2023-04-02T08:31:05.047Z,510.00
2023-04-02T08:32:04.867Z,509.00
2023-04-02T08:33:04.919Z,509.00
2023-04-02T08:34:04.883Z,509.00
2023-04-02T08:35:04.888Z,509.00
2023-04-02T08:36:04.918Z,508.00
2023-04-02T08:37:04.906Z,509.00
2023-04-02T08:38:04.897Z,505.00
2023-04-02T08:39:04.963Z,509.00
2023-04-02T08:40:04.937Z,512.00
2023-04-02T08:41:04.915Z,507.00
2023-04-02T08:42:04.955Z,508.00
2023-04-02T08:43:04.999Z,509.00
2023-04-02T08:44:04.955Z,508.00
2023-04-02T08:45:20.818Z,510.00
2023-04-02T08:46:05.971Z,510.00
2023-04-02T08:47:04.981Z,511.00
2023-04-02T08:48:05.006Z,511.00
2023-04-02T08:49:04.922Z,510.00
2023-04-02T08:50:04.938Z,513.00
2023-04-02T08:51:04.940Z,511.00
2023-04-02T08:52:04.958Z,510.00
2023-04-02T08:53:04.911Z,513.00
2023-04-02T08:54:04.929Z,510.00
2023-04-02T08:55:04.933Z,510.00
2023-04-02T08:56:04.905Z,511.00
2023-04-02T08:57:04.899Z,511.00
2023-04-02T08:58:04.866Z,511.00
2023-04-02T08:59:04.874Z,510.00
2023-04-02T09:00:04.848Z,509.00
2023-04-02T09:01:04.857Z,511.00
2023-04-02T09:02:04.872Z,511.00
2023-04-02T09:03:04.897Z,512.00
2023-04-02T09:04:04.849Z,510.00
2023-04-02T09:05:04.974Z,510.00
2023-04-02T09:06:04.816Z,512.00
2023-04-02T09:07:04.828Z,513.00
2023-04-02T09:08:04.813Z,513.00
2023-04-02T09:09:04.818Z,510.00
2023-04-02T09:10:04.808Z,511.00
2023-04-02T09:11:04.786Z,510.00
2023-04-02T09:12:04.780Z,511.00
2023-04-02T09:13:04.779Z,510.00
2023-04-02T09:14:04.800Z,509.00
2023-04-02T09:15:04.726Z,511.00
2023-04-02T09:16:04.816Z,509.00
2023-04-02T09:17:04.729Z,510.00
2023-04-02T09:18:04.784Z,509.00
2023-04-02T09:19:04.765Z,508.00
2023-04-02T09:20:04.730Z,508.00
2023-04-02T09:21:04.690Z,504.00
2023-04-02T09:22:04.726Z,506.00
2023-04-02T09:23:04.674Z,504.00
2023-04-02T09:24:05.235Z,503.00
2023-04-02T09:25:04.667Z,507.00
2023-04-02T09:26:05.109Z,503.00
2023-04-02T09:27:04.685Z,505.00
2023-04-02T09:28:04.657Z,505.00
2023-04-02T09:29:04.618Z,503.00
2023-04-02T09:30:04.628Z,504.00
2023-04-02T09:31:06.925Z,500.00
2023-04-02T09:32:04.685Z,500.00
2023-04-02T09:33:04.683Z,503.00
2023-04-02T09:34:04.632Z,501.00
2023-04-02T09:35:12.283Z,502.00
2023-04-02T09:36:05.621Z,503.00
2023-04-02T09:37:04.573Z,503.00
2023-04-02T09:38:04.604Z,503.00
2023-04-02T09:39:04.579Z,501.00
2023-04-02T09:40:04.580Z,498.00
2023-04-02T09:41:04.584Z,501.00
2023-04-02T09:42:06.021Z,505.00
2023-04-02T09:43:04.598Z,501.00
2023-04-02T09:44:04.559Z,502.00
2023-04-02T09:45:04.540Z,500.00
2023-04-02T09:46:04.524Z,502.00
2023-04-02T09:47:04.569Z,500.00
2023-04-02T09:48:04.549Z,501.00
2023-04-02T09:49:04.543Z,501.00
2023-04-02T09:50:04.502Z,503.00
2023-04-02T09:51:04.508Z,504.00
2023-04-02T09:52:04.547Z,505.00
2023-04-02T09:53:04.553Z,507.00
2023-04-02T09:54:04.600Z,508.00
2023-04-02T09:55:04.596Z,508.00
2023-04-02T09:56:04.669Z,505.00
2023-04-02T09:57:04.725Z,509.00
2023-04-02T09:58:04.734Z,506.00
2023-04-02T09:59:04.797Z,503.00
2023-04-02T10:00:04.847Z,503.00
2023-04-02T10:01:04.933Z,504.00
2023-04-02T10:02:04.954Z,504.00
2023-04-02T10:03:05.064Z,505.00
2023-04-02T10:04:05.042Z,504.00
2023-04-02T10:05:05.078Z,502.00
2023-04-02T10:06:05.095Z,500.00
2023-04-02T10:07:05.115Z,507.00
2023-04-02T10:08:05.116Z,502.00
2023-04-02T10:09:05.137Z,502.00
2023-04-02T10:10:05.214Z,505.00
2023-04-02T10:11:05.225Z,505.00
2023-04-02T10:12:05.208Z,505.00
2023-04-02T10:13:05.259Z,503.00
2023-04-02T10:14:05.230Z,501.00
2023-04-02T10:15:05.284Z,502.00
2023-04-02T10:16:05.433Z,500.00
2023-04-02T10:17:05.464Z,506.00
2023-04-02T10:18:05.478Z,504.00
2023-04-02T10:19:05.472Z,501.00
2023-04-02T10:20:05.523Z,502.00
2023-04-02T10:21:05.566Z,500.00
2023-04-02T10:22:05.620Z,502.00
2023-04-02T10:23:06.531Z,506.00
2023-04-02T10:24:05.621Z,507.00
2023-04-02T10:25:05.683Z,503.00
2023-04-02T10:26:05.725Z,503.00
2023-04-02T10:27:05.817Z,501.00
2023-04-02T10:28:05.800Z,504.00
2023-04-02T10:29:07.097Z,505.00
2023-04-02T10:30:05.946Z,506.00
2023-04-02T10:31:06.004Z,504.00
2023-04-02T10:32:06.045Z,508.00
2023-04-02T10:33:06.148Z,504.00
2023-04-02T10:34:06.167Z,504.00
2023-04-02T10:35:06.214Z,501.00
2023-04-02T10:36:06.271Z,501.00
2023-04-02T10:37:06.324Z,503.00
2023-04-02T10:38:06.437Z,505.00
2023-04-02T10:39:06.446Z,507.00
2023-04-02T10:40:06.498Z,505.00
2023-04-02T10:41:06.519Z,502.00
2023-04-02T10:42:06.551Z,505.00
2023-04-02T10:43:06.623Z,503.00
2023-04-02T10:44:19.050Z,505.00
2023-04-02T10:45:07.666Z,505.00
2023-04-02T10:46:06.740Z,506.00
2023-04-02T10:47:06.658Z,503.00
2023-04-02T10:48:06.678Z,501.00
2023-04-02T10:49:06.754Z,496.00
2023-04-02T10:50:06.640Z,502.00
2023-04-02T10:51:06.661Z,500.00
2023-04-02T10:52:06.614Z,508.00
2023-04-02T10:53:06.653Z,504.00
2023-04-02T10:54:06.712Z,501.00
2023-04-02T10:55:06.757Z,507.00
2023-04-02T10:56:06.828Z,503.00
2023-04-02T10:57:06.914Z,502.00
2023-04-02T10:58:06.898Z,500.00
2023-04-02T10:59:06.930Z,504.00
2023-04-02T11:00:06.972Z,503.00
2023-04-02T11:01:07.080Z,506.00
2023-04-02T11:02:07.107Z,508.00
2023-04-02T11:03:07.250Z,507.00
2023-04-02T11:04:07.182Z,509.00
2023-04-02T11:05:07.272Z,511.00
2023-04-02T11:06:07.303Z,510.00
2023-04-02T11:07:14.664Z,508.00
2023-04-02T11:08:08.354Z,509.00
2023-04-02T11:09:07.373Z,509.00
2023-04-02T11:10:07.326Z,508.00
2023-04-02T11:11:07.341Z,508.00
2023-04-02T11:12:07.343Z,504.00
2023-04-02T11:13:07.312Z,500.00
2023-04-02T11:14:07.285Z,504.00
2023-04-02T11:15:07.249Z,508.00
2023-04-02T11:16:07.445Z,508.00
2023-04-02T11:17:07.371Z,507.00
2023-04-02T11:18:07.431Z,505.00
2023-04-02T11:19:07.483Z,505.00
2023-04-02T11:20:07.581Z,509.00
2023-04-02T11:21:07.724Z,505.00
2023-04-02T11:22:07.693Z,507.00
2023-04-02T11:23:07.758Z,504.00
2023-04-02T11:24:07.811Z,507.00
2023-04-02T11:25:07.898Z,507.00
2023-04-02T11:26:07.945Z,506.00
2023-04-02T11:27:08.015Z,500.00
2023-04-02T11:28:08.067Z,502.00
2023-04-02T11:29:08.147Z,500.00
2023-04-02T11:30:08.194Z,502.00
2023-04-02T11:31:08.276Z,503.00
2023-04-02T11:32:08.279Z,509.00
2023-04-02T11:33:08.394Z,516.00
2023-04-02T11:34:08.401Z,512.00
2023-04-02T11:35:08.450Z,517.00
2023-04-02T11:36:08.559Z,520.00
2023-04-02T11:37:08.602Z,520.00
2023-04-02T11:38:08.627Z,523.00
2023-04-02T11:39:17.046Z,521.00
2023-04-02T11:40:09.707Z,521.00
2023-04-02T11:41:08.706Z,522.00
2023-04-02T11:42:08.710Z,516.00
2023-04-02T11:43:08.667Z,514.00
2023-04-02T11:44:08.684Z,514.00
2023-04-02T11:45:08.639Z,521.00
2023-04-02T11:46:08.686Z,520.00
2023-04-02T11:47:08.648Z,519.00
2023-04-02T11:48:08.749Z,522.00
2023-04-02T11:49:08.770Z,523.00
2023-04-02T11:50:08.823Z,524.00
2023-04-02T11:51:08.906Z,525.00
2023-04-02T11:52:12.299Z,524.00
2023-04-02T11:53:08.945Z,527.00
2023-04-02T11:54:08.981Z,525.00
2023-04-02T11:55:08.912Z,530.00
2023-04-02T11:56:08.927Z,529.00
2023-04-02T11:57:08.971Z,530.00
2023-04-02T11:58:08.920Z,528.00
2023-04-02T11:59:08.893Z,530.00
2023-04-02T12:00:08.992Z,526.00
2023-04-02T12:01:08.908Z,529.00
2023-04-02T12:02:08.932Z,532.00
2023-04-02T12:03:08.952Z,530.00
2023-04-02T12:04:08.851Z,533.00
2023-04-02T12:05:08.876Z,532.00
2023-04-02T12:06:08.826Z,532.00
2023-04-02T12:07:08.841Z,534.00
2023-04-02T12:08:08.847Z,535.00
2023-04-02T12:09:08.810Z,535.00
2023-04-02T12:10:08.861Z,534.00
2023-04-02T12:11:08.831Z,534.00
2023-04-02T12:12:08.812Z,538.00
2023-04-02T12:13:08.804Z,535.00
2023-04-02T12:14:08.788Z,536.00
2023-04-02T12:15:08.796Z,536.00
2023-04-02T12:16:08.789Z,538.00
2023-04-02T12:17:09.991Z,534.00
2023-04-02T12:18:08.764Z,540.00
2023-04-02T12:19:08.767Z,538.00
2023-04-02T12:20:08.776Z,539.00
2023-04-02T12:21:08.733Z,539.00
2023-04-02T12:22:08.715Z,536.00
2023-04-02T12:23:08.840Z,536.00
2023-04-02T12:24:08.895Z,536.00
2023-04-02T12:25:08.957Z,538.00
2023-04-02T12:26:08.982Z,538.00
2023-04-02T12:27:09.044Z,538.00
2023-04-02T12:28:09.102Z,539.00
2023-04-02T12:29:09.158Z,540.00